sensor_id;sensor_type;location;lat;lon;timestamp;temperature;humidity
21918;DHT22;11123;49.882;8.662;2022-12-16T00:01:25;-8.00;99.90
21918;DHT22;11123;49.882;8.662;2022-12-16T00:03:57;-8.00;99.90
21918;DHT22;11123;49.882;8.662;2022-12-16T00:06:29;-8.10;99.90
21918;DHT22;11123;49.882;8.662;2022-12-16T00:09:00;-8.00;99.90
21918;DHT22;11123;49.882;8.662;2022-12-16T00:11:31;-8.10;99.90
21918;DHT22;11123;49.882;8.662;2022-12-16T00:14:00;-8.10;99.90
21918;DHT22;11123;49.882;8.662;2022-12-16T00:16:29;-8.20;99.90
21918;DHT22;11123;49.882;8.662;2022-12-16T00:18:58;-8.10;99.90
21918;DHT22;11123;49.882;8.662;2022-12-16T00:21:26;-8.20;99.90
21918;DHT22;11123;49.882;8.662;2022-12-16T00:23:56;-8.20;99.90
21918;DHT22;11123;49.882;8.662;2022-12-16T00:26:26;-8.20;99.90
21918;DHT22;11123;49.882;8.662;2022-12-16T00:28:57;-8.20;99.90
21918;DHT22;11123;49.882;8.662;2022-12-16T00:31:26;-8.10;99.90
21918;DHT22;11123;49.882;8.662;2022-12-16T00:33:56;-8.10;99.90
21918;DHT22;11123;49.882;8.662;2022-12-16T00:36:24;-8.10;99.90
21918;DHT22;11123;49.882;8.662;2022-12-16T00:38:55;-8.20;99.90
21918;DHT22;11123;49.882;8.662;2022-12-16T00:41:26;-8.20;99.90
21918;DHT22;11123;49.882;8.662;2022-12-16T00:43:55;-8.30;99.90
21918;DHT22;11123;49.882;8.662;2022-12-16T00:46:25;-8.30;99.90
21918;DHT22;11123;49.882;8.662;2022-12-16T00:48:59;-8.40;99.90
21918;DHT22;11123;49.882;8.662;2022-12-16T00:51:28;-8.40;99.90
21918;DHT22;11123;49.882;8.662;2022-12-16T00:53:57;-8.40;99.90
21918;DHT22;11123;49.882;8.662;2022-12-16T00:56:27;-8.40;99.90
21918;DHT22;11123;49.882;8.662;2022-12-16T00:58:56;-8.40;99.90
21918;DHT22;11123;49.882;8.662;2022-12-16T01:01:25;-8.40;99.90
21918;DHT22;11123;49.882;8.662;2022-12-16T01:03:56;-8.40;99.90
21918;DHT22;11123;49.882;8.662;2022-12-16T01:06:25;-8.40;99.90
21918;DHT22;11123;49.882;8.662;2022-12-16T01:08:54;-8.40;99.90
21918;DHT22;11123;49.882;8.662;2022-12-16T01:11:23;-8.40;99.90
21918;DHT22;11123;49.882;8.662;2022-12-16T01:13:53;-8.40;99.90
21918;DHT22;11123;49.882;8.662;2022-12-16T01:16:22;-8.30;99.90
21918;DHT22;11123;49.882;8.662;2022-12-16T01:18:51;-8.30;99.90
21918;DHT22;11123;49.882;8.662;2022-12-16T01:21:21;-8.40;99.90
21918;DHT22;11123;49.882;8.662;2022-12-16T01:23:50;-8.40;99.90
21918;DHT22;11123;49.882;8.662;2022-12-16T01:26:24;-8.40;99.90
21918;DHT22;11123;49.882;8.662;2022-12-16T01:28:54;-8.40;99.90
21918;DHT22;11123;49.882;8.662;2022-12-16T01:31:23;-8.50;99.90
21918;DHT22;11123;49.882;8.662;2022-12-16T01:33:56;-8.40;99.90
21918;DHT22;11123;49.882;8.662;2022-12-16T01:36:25;-8.40;99.90
21918;DHT22;11123;49.882;8.662;2022-12-16T01:38:54;-8.50;99.90
21918;DHT22;11123;49.882;8.662;2022-12-16T01:41:26;-8.50;99.90
21918;DHT22;11123;49.882;8.662;2022-12-16T01:44:13;-8.40;99.90
21918;DHT22;11123;49.882;8.662;2022-12-16T01:46:47;-8.40;99.90
21918;DHT22;11123;49.882;8.662;2022-12-16T01:49:23;-8.40;99.90
21918;DHT22;11123;49.882;8.662;2022-12-16T01:51:54;-8.50;99.90
21918;DHT22;11123;49.882;8.662;2022-12-16T01:54:26;-8.50;99.90
21918;DHT22;11123;49.882;8.662;2022-12-16T01:56:58;-8.50;99.90
21918;DHT22;11123;49.882;8.662;2022-12-16T01:59:31;-8.50;99.90
21918;DHT22;11123;49.882;8.662;2022-12-16T02:02:03;-8.50;99.90
21918;DHT22;11123;49.882;8.662;2022-12-16T02:04:32;-8.50;99.90
21918;DHT22;11123;49.882;8.662;2022-12-16T02:07:02;-8.60;99.90
21918;DHT22;11123;49.882;8.662;2022-12-16T02:09:31;-8.60;99.90
21918;DHT22;11123;49.882;8.662;2022-12-16T02:12:20;-8.60;99.90
21918;DHT22;11123;49.882;8.662;2022-12-16T02:15:16;-8.60;99.90
21918;DHT22;11123;49.882;8.662;2022-12-16T02:17:55;-8.60;99.90
21918;DHT22;11123;49.882;8.662;2022-12-16T02:20:58;-8.60;99.90
21918;DHT22;11123;49.882;8.662;2022-12-16T02:24:01;-8.60;99.90
21918;DHT22;11123;49.882;8.662;2022-12-16T02:27:03;-8.60;99.90
21918;DHT22;11123;49.882;8.662;2022-12-16T02:32:52;-8.50;99.90
21918;DHT22;11123;49.882;8.662;2022-12-16T02:35:31;-8.50;99.90
21918;DHT22;11123;49.882;8.662;2022-12-16T02:38:12;-8.50;99.90
21918;DHT22;11123;49.882;8.662;2022-12-16T02:40:50;-8.50;99.90
21918;DHT22;11123;49.882;8.662;2022-12-16T02:43:36;-8.50;99.90
21918;DHT22;11123;49.882;8.662;2022-12-16T02:46:12;-8.50;99.90
21918;DHT22;11123;49.882;8.662;2022-12-16T02:48:42;-8.50;99.90
21918;DHT22;11123;49.882;8.662;2022-12-16T02:51:11;-8.50;99.90
21918;DHT22;11123;49.882;8.662;2022-12-16T02:53:42;-8.50;99.90
21918;DHT22;11123;49.882;8.662;2022-12-16T02:56:21;-8.60;99.90
21918;DHT22;11123;49.882;8.662;2022-12-16T02:58:59;-8.60;99.90
21918;DHT22;11123;49.882;8.662;2022-12-16T03:01:46;-8.60;99.90
21918;DHT22;11123;49.882;8.662;2022-12-16T03:04:47;-8.60;99.90
21918;DHT22;11123;49.882;8.662;2022-12-16T03:07:21;-8.60;99.90
21918;DHT22;11123;49.882;8.662;2022-12-16T03:09:54;-8.60;99.90
21918;DHT22;11123;49.882;8.662;2022-12-16T03:12:24;-8.60;99.90
21918;DHT22;11123;49.882;8.662;2022-12-16T03:14:55;-8.60;99.90
21918;DHT22;11123;49.882;8.662;2022-12-16T03:17:26;-8.60;99.90
21918;DHT22;11123;49.882;8.662;2022-12-16T03:20:11;-8.60;99.90
21918;DHT22;11123;49.882;8.662;2022-12-16T03:22:44;-8.50;99.90
21918;DHT22;11123;49.882;8.662;2022-12-16T03:25:15;-8.60;99.90
21918;DHT22;11123;49.882;8.662;2022-12-16T03:27:48;-8.60;99.90
21918;DHT22;11123;49.882;8.662;2022-12-16T03:30:23;-8.60;99.90
21918;DHT22;11123;49.882;8.662;2022-12-16T03:32:58;-8.60;99.90
21918;DHT22;11123;49.882;8.662;2022-12-16T03:35:34;-8.60;99.90
21918;DHT22;11123;49.882;8.662;2022-12-16T03:38:06;-8.60;99.90
21918;DHT22;11123;49.882;8.662;2022-12-16T03:40:37;-8.70;99.90
21918;DHT22;11123;49.882;8.662;2022-12-16T03:43:10;-8.60;99.90
21918;DHT22;11123;49.882;8.662;2022-12-16T03:45:45;-8.60;99.90
21918;DHT22;11123;49.882;8.662;2022-12-16T03:48:22;-8.60;99.90
21918;DHT22;11123;49.882;8.662;2022-12-16T03:50:53;-8.50;99.90
21918;DHT22;11123;49.882;8.662;2022-12-16T03:53:23;-8.40;99.90
21918;DHT22;11123;49.882;8.662;2022-12-16T03:55:53;-8.40;99.90
21918;DHT22;11123;49.882;8.662;2022-12-16T03:58:22;-8.30;99.90
21918;DHT22;11123;49.882;8.662;2022-12-16T04:00:51;-8.30;99.90
21918;DHT22;11123;49.882;8.662;2022-12-16T04:03:21;-8.20;99.90
21918;DHT22;11123;49.882;8.662;2022-12-16T04:05:55;-8.20;99.90
21918;DHT22;11123;49.882;8.662;2022-12-16T04:08:24;-8.20;99.90
21918;DHT22;11123;49.882;8.662;2022-12-16T04:10:53;-8.10;99.90
21918;DHT22;11123;49.882;8.662;2022-12-16T04:13:39;-8.10;99.90
21918;DHT22;11123;49.882;8.662;2022-12-16T04:16:27;-8.10;99.90
21918;DHT22;11123;49.882;8.662;2022-12-16T04:19:27;-8.10;99.90
21918;DHT22;11123;49.882;8.662;2022-12-16T04:22:19;-8.10;99.90
21918;DHT22;11123;49.882;8.662;2022-12-16T04:25:09;-8.00;99.90
21918;DHT22;11123;49.882;8.662;2022-12-16T04:27:40;-7.90;99.90
21918;DHT22;11123;49.882;8.662;2022-12-16T04:30:14;-7.80;99.90
21918;DHT22;11123;49.882;8.662;2022-12-16T04:32:53;-7.80;99.90
21918;DHT22;11123;49.882;8.662;2022-12-16T04:35:40;-7.70;99.90
21918;DHT22;11123;49.882;8.662;2022-12-16T04:38:28;-7.60;99.90
21918;DHT22;11123;49.882;8.662;2022-12-16T04:41:16;-7.50;99.90
21918;DHT22;11123;49.882;8.662;2022-12-16T04:44:03;-7.40;99.90
21918;DHT22;11123;49.882;8.662;2022-12-16T04:46:50;-7.20;99.90
21918;DHT22;11123;49.882;8.662;2022-12-16T04:49:38;-7.00;99.90
21918;DHT22;11123;49.882;8.662;2022-12-16T04:52:25;-6.80;99.90
21918;DHT22;11123;49.882;8.662;2022-12-16T04:55:14;-6.70;99.90
21918;DHT22;11123;49.882;8.662;2022-12-16T04:58:06;-6.60;99.90
21918;DHT22;11123;49.882;8.662;2022-12-16T05:01:01;-6.60;99.90
21918;DHT22;11123;49.882;8.662;2022-12-16T05:03:47;-6.60;99.90
21918;DHT22;11123;49.882;8.662;2022-12-16T05:06:37;-6.60;99.90
21918;DHT22;11123;49.882;8.662;2022-12-16T05:09:24;-6.50;99.90
21918;DHT22;11123;49.882;8.662;2022-12-16T05:12:13;-6.40;99.90
21918;DHT22;11123;49.882;8.662;2022-12-16T05:15:00;-6.00;99.90
21918;DHT22;11123;49.882;8.662;2022-12-16T05:17:48;-5.70;99.90
21918;DHT22;11123;49.882;8.662;2022-12-16T05:20:35;-5.50;99.90
21918;DHT22;11123;49.882;8.662;2022-12-16T05:23:24;-5.40;99.90
21918;DHT22;11123;49.882;8.662;2022-12-16T05:26:12;-5.40;99.90
21918;DHT22;11123;49.882;8.662;2022-12-16T05:29:00;-5.50;99.90
21918;DHT22;11123;49.882;8.662;2022-12-16T05:31:47;-5.60;99.90
21918;DHT22;11123;49.882;8.662;2022-12-16T05:34:35;-5.70;99.90
21918;DHT22;11123;49.882;8.662;2022-12-16T05:37:21;-5.80;99.90
21918;DHT22;11123;49.882;8.662;2022-12-16T05:40:09;-5.90;99.90
21918;DHT22;11123;49.882;8.662;2022-12-16T05:43:15;-5.90;99.90
21918;DHT22;11123;49.882;8.662;2022-12-16T05:46:07;-6.00;99.90
21918;DHT22;11123;49.882;8.662;2022-12-16T05:48:54;-6.10;99.90
21918;DHT22;11123;49.882;8.662;2022-12-16T05:51:41;-6.10;99.90
21918;DHT22;11123;49.882;8.662;2022-12-16T05:54:30;-6.10;99.90
21918;DHT22;11123;49.882;8.662;2022-12-16T05:57:16;-6.10;99.90
21918;DHT22;11123;49.882;8.662;2022-12-16T06:00:03;-6.20;99.90
21918;DHT22;11123;49.882;8.662;2022-12-16T06:02:53;-6.20;99.90
21918;DHT22;11123;49.882;8.662;2022-12-16T06:05:40;-6.10;99.90
21918;DHT22;11123;49.882;8.662;2022-12-16T06:08:29;-6.10;99.90
21918;DHT22;11123;49.882;8.662;2022-12-16T06:11:15;-6.10;99.90
21918;DHT22;11123;49.882;8.662;2022-12-16T06:14:04;-6.00;99.90
21918;DHT22;11123;49.882;8.662;2022-12-16T06:16:50;-5.90;99.90
21918;DHT22;11123;49.882;8.662;2022-12-16T06:19:38;-5.80;99.90
21918;DHT22;11123;49.882;8.662;2022-12-16T06:22:25;-5.90;99.90
21918;DHT22;11123;49.882;8.662;2022-12-16T06:25:11;-5.90;99.90
21918;DHT22;11123;49.882;8.662;2022-12-16T06:27:58;-5.80;99.90
21918;DHT22;11123;49.882;8.662;2022-12-16T06:30:45;-5.70;99.90
21918;DHT22;11123;49.882;8.662;2022-12-16T06:33:32;-5.50;99.90
21918;DHT22;11123;49.882;8.662;2022-12-16T06:36:28;-5.50;99.90
21918;DHT22;11123;49.882;8.662;2022-12-16T06:39:14;-5.50;99.90
21918;DHT22;11123;49.882;8.662;2022-12-16T06:42:01;-5.50;99.90
21918;DHT22;11123;49.882;8.662;2022-12-16T06:44:48;-5.50;99.90
21918;DHT22;11123;49.882;8.662;2022-12-16T06:47:38;-5.50;99.90
21918;DHT22;11123;49.882;8.662;2022-12-16T06:50:26;-5.60;99.90
21918;DHT22;11123;49.882;8.662;2022-12-16T06:53:19;-5.60;99.90
21918;DHT22;11123;49.882;8.662;2022-12-16T06:56:06;-5.70;99.90
21918;DHT22;11123;49.882;8.662;2022-12-16T06:58:53;-5.80;99.90
21918;DHT22;11123;49.882;8.662;2022-12-16T07:01:39;-5.80;99.90
21918;DHT22;11123;49.882;8.662;2022-12-16T07:04:29;-5.80;99.90
21918;DHT22;11123;49.882;8.662;2022-12-16T07:07:17;-5.70;99.90
21918;DHT22;11123;49.882;8.662;2022-12-16T07:10:07;-5.70;99.90
21918;DHT22;11123;49.882;8.662;2022-12-16T07:12:59;-5.70;99.90
21918;DHT22;11123;49.882;8.662;2022-12-16T07:15:46;-5.80;99.90
21918;DHT22;11123;49.882;8.662;2022-12-16T07:18:34;-5.80;99.90
21918;DHT22;11123;49.882;8.662;2022-12-16T07:21:24;-5.70;99.90
21918;DHT22;11123;49.882;8.662;2022-12-16T07:24:12;-5.70;99.90
21918;DHT22;11123;49.882;8.662;2022-12-16T07:27:04;-5.60;99.90
21918;DHT22;11123;49.882;8.662;2022-12-16T07:30:07;-5.60;99.90
21918;DHT22;11123;49.882;8.662;2022-12-16T07:38:02;-5.60;99.90
21918;DHT22;11123;49.882;8.662;2022-12-16T07:42:34;-5.60;99.90
21918;DHT22;11123;49.882;8.662;2022-12-16T07:45:23;-5.60;99.90
21918;DHT22;11123;49.882;8.662;2022-12-16T07:48:13;-5.70;99.90
21918;DHT22;11123;49.882;8.662;2022-12-16T07:51:06;-5.70;99.90
21918;DHT22;11123;49.882;8.662;2022-12-16T07:53:57;-5.60;99.90
21918;DHT22;11123;49.882;8.662;2022-12-16T08:01:47;-5.60;99.90
21918;DHT22;11123;49.882;8.662;2022-12-16T08:04:35;-5.50;99.90
21918;DHT22;11123;49.882;8.662;2022-12-16T08:07:22;-5.50;99.90
21918;DHT22;11123;49.882;8.662;2022-12-16T08:10:09;-5.30;99.90
21918;DHT22;11123;49.882;8.662;2022-12-16T08:13:00;-5.20;99.90
21918;DHT22;11123;49.882;8.662;2022-12-16T08:15:53;-5.10;99.90
21918;DHT22;11123;49.882;8.662;2022-12-16T08:18:45;-4.90;99.90
21918;DHT22;11123;49.882;8.662;2022-12-16T08:21:37;-4.70;99.90
21918;DHT22;11123;49.882;8.662;2022-12-16T08:24:38;-4.60;99.90
21918;DHT22;11123;49.882;8.662;2022-12-16T08:27:32;-4.50;99.90
21918;DHT22;11123;49.882;8.662;2022-12-16T08:30:19;-4.40;99.90
21918;DHT22;11123;49.882;8.662;2022-12-16T08:33:08;-4.20;99.90
21918;DHT22;11123;49.882;8.662;2022-12-16T08:36:01;-4.00;99.90
21918;DHT22;11123;49.882;8.662;2022-12-16T08:38:50;-3.90;99.90
21918;DHT22;11123;49.882;8.662;2022-12-16T08:42:37;-3.70;99.90
21918;DHT22;11123;49.882;8.662;2022-12-16T08:45:25;-3.60;99.90
21918;DHT22;11123;49.882;8.662;2022-12-16T08:48:37;-3.50;99.90
21918;DHT22;11123;49.882;8.662;2022-12-16T08:51:25;-3.40;99.90
21918;DHT22;11123;49.882;8.662;2022-12-16T08:54:36;-3.40;99.90
21918;DHT22;11123;49.882;8.662;2022-12-16T08:57:29;-3.40;99.90
21918;DHT22;11123;49.882;8.662;2022-12-16T09:00:17;-3.30;99.90
21918;DHT22;11123;49.882;8.662;2022-12-16T09:03:45;-3.30;99.90
21918;DHT22;11123;49.882;8.662;2022-12-16T09:06:35;-3.20;99.90
21918;DHT22;11123;49.882;8.662;2022-12-16T09:12:34;-3.20;99.90
21918;DHT22;11123;49.882;8.662;2022-12-16T09:15:39;-3.20;99.90
21918;DHT22;11123;49.882;8.662;2022-12-16T09:18:30;-3.10;99.90
21918;DHT22;11123;49.882;8.662;2022-12-16T09:21:28;-3.10;99.90
21918;DHT22;11123;49.882;8.662;2022-12-16T09:24:23;-3.10;99.90
21918;DHT22;11123;49.882;8.662;2022-12-16T09:27:13;-3.10;99.90
21918;DHT22;11123;49.882;8.662;2022-12-16T09:33:30;-3.00;99.90
21918;DHT22;11123;49.882;8.662;2022-12-16T09:36:18;-3.00;99.90
21918;DHT22;11123;49.882;8.662;2022-12-16T09:39:22;-3.00;99.90
21918;DHT22;11123;49.882;8.662;2022-12-16T09:42:19;-2.90;99.90
21918;DHT22;11123;49.882;8.662;2022-12-16T09:45:31;-2.80;99.90
21918;DHT22;11123;49.882;8.662;2022-12-16T09:48:26;-2.80;99.90
21918;DHT22;11123;49.882;8.662;2022-12-16T09:51:45;-2.80;99.90
21918;DHT22;11123;49.882;8.662;2022-12-16T09:54:44;-2.80;99.90
21918;DHT22;11123;49.882;8.662;2022-12-16T09:58:16;-2.70;99.90
21918;DHT22;11123;49.882;8.662;2022-12-16T10:01:08;-2.50;99.90
21918;DHT22;11123;49.882;8.662;2022-12-16T10:04:03;-2.50;99.90
21918;DHT22;11123;49.882;8.662;2022-12-16T10:06:57;-2.40;99.90
21918;DHT22;11123;49.882;8.662;2022-12-16T10:09:55;-2.40;99.90
21918;DHT22;11123;49.882;8.662;2022-12-16T10:12:50;-2.30;99.90
21918;DHT22;11123;49.882;8.662;2022-12-16T10:15:45;-2.10;99.90
21918;DHT22;11123;49.882;8.662;2022-12-16T10:18:42;-2.10;99.90
21918;DHT22;11123;49.882;8.662;2022-12-16T10:22:05;-2.10;99.90
21918;DHT22;11123;49.882;8.662;2022-12-16T10:25:11;-2.00;99.90
21918;DHT22;11123;49.882;8.662;2022-12-16T10:28:17;-1.90;99.90
21918;DHT22;11123;49.882;8.662;2022-12-16T10:31:12;-1.70;99.90
21918;DHT22;11123;49.882;8.662;2022-12-16T10:34:11;-1.50;99.90
21918;DHT22;11123;49.882;8.662;2022-12-16T10:37:30;-1.60;99.90
21918;DHT22;11123;49.882;8.662;2022-12-16T10:45:03;-1.70;99.90
21918;DHT22;11123;49.882;8.662;2022-12-16T10:48:09;-1.80;99.90
21918;DHT22;11123;49.882;8.662;2022-12-16T10:51:13;-1.90;99.90
21918;DHT22;11123;49.882;8.662;2022-12-16T10:54:24;-1.90;99.90
21918;DHT22;11123;49.882;8.662;2022-12-16T10:57:27;-1.90;99.90
21918;DHT22;11123;49.882;8.662;2022-12-16T11:01:24;-1.70;99.90
21918;DHT22;11123;49.882;8.662;2022-12-16T11:04:31;-1.60;99.90
21918;DHT22;11123;49.882;8.662;2022-12-16T11:07:56;-1.40;99.90
21918;DHT22;11123;49.882;8.662;2022-12-16T11:11:22;-1.20;99.90
21918;DHT22;11123;49.882;8.662;2022-12-16T11:14:22;-1.30;99.90
21918;DHT22;11123;49.882;8.662;2022-12-16T11:17:59;-1.20;99.90
21918;DHT22;11123;49.882;8.662;2022-12-16T11:22:12;-1.10;99.90
21918;DHT22;11123;49.882;8.662;2022-12-16T11:25:34;-0.80;99.90
21918;DHT22;11123;49.882;8.662;2022-12-16T11:29:07;-0.40;99.90
21918;DHT22;11123;49.882;8.662;2022-12-16T11:32:09;-0.10;99.90
21918;DHT22;11123;49.882;8.662;2022-12-16T11:35:17;0.10;99.90
21918;DHT22;11123;49.882;8.662;2022-12-16T11:38:46;0.40;99.90
21918;DHT22;11123;49.882;8.662;2022-12-16T11:43:09;0.50;96.70
21918;DHT22;11123;49.882;8.662;2022-12-16T11:46:51;0.60;99.90
21918;DHT22;11123;49.882;8.662;2022-12-16T11:55:33;0.80;95.90
21918;DHT22;11123;49.882;8.662;2022-12-16T11:59:01;0.60;99.10
21918;DHT22;11123;49.882;8.662;2022-12-16T12:02:49;0.70;99.90
21918;DHT22;11123;49.882;8.662;2022-12-16T12:05:58;0.80;97.90
21918;DHT22;11123;49.882;8.662;2022-12-16T12:09:10;1.10;99.50
21918;DHT22;11123;49.882;8.662;2022-12-16T12:15:38;1.20;90.40
21918;DHT22;11123;49.882;8.662;2022-12-16T12:24:01;0.80;96.00
21918;DHT22;11123;49.882;8.662;2022-12-16T12:36:24;-0.30;99.90
21918;DHT22;11123;49.882;8.662;2022-12-16T12:49:24;-0.20;99.90
21918;DHT22;11123;49.882;8.662;2022-12-16T12:52:41;-0.10;99.90
21918;DHT22;11123;49.882;8.662;2022-12-16T12:55:43;-0.30;99.90
21918;DHT22;11123;49.882;8.662;2022-12-16T12:58:49;-0.60;99.90
21918;DHT22;11123;49.882;8.662;2022-12-16T13:07:23;-0.60;99.90
21918;DHT22;11123;49.882;8.662;2022-12-16T13:11:21;-0.60;99.90
21918;DHT22;11123;49.882;8.662;2022-12-16T13:14:53;-0.70;99.90
21918;DHT22;11123;49.882;8.662;2022-12-16T13:18:18;-0.80;99.90
21918;DHT22;11123;49.882;8.662;2022-12-16T13:21:55;-0.90;99.90
21918;DHT22;11123;49.882;8.662;2022-12-16T13:26:37;-0.90;99.90
21918;DHT22;11123;49.882;8.662;2022-12-16T13:31:05;-1.00;99.90
21918;DHT22;11123;49.882;8.662;2022-12-16T13:34:26;-1.00;99.90
21918;DHT22;11123;49.882;8.662;2022-12-16T13:37:38;-1.00;99.90
21918;DHT22;11123;49.882;8.662;2022-12-16T13:41:49;-1.10;99.90
21918;DHT22;11123;49.882;8.662;2022-12-16T13:59:17;-1.20;99.90
21918;DHT22;11123;49.882;8.662;2022-12-16T14:03:26;-1.20;99.90
21918;DHT22;11123;49.882;8.662;2022-12-16T14:25:34;-1.50;99.90
21918;DHT22;11123;49.882;8.662;2022-12-16T14:28:45;-1.60;99.90
21918;DHT22;11123;49.882;8.662;2022-12-16T14:36:48;-1.80;99.90
21918;DHT22;11123;49.882;8.662;2022-12-16T15:00:51;-2.40;99.90
21918;DHT22;11123;49.882;8.662;2022-12-16T15:10:02;-2.90;99.90
21918;DHT22;11123;49.882;8.662;2022-12-16T15:22:49;-3.40;99.90
21918;DHT22;11123;49.882;8.662;2022-12-16T15:26:01;-3.50;99.90
21918;DHT22;11123;49.882;8.662;2022-12-16T15:29:27;-3.70;99.90
21918;DHT22;11123;49.882;8.662;2022-12-16T15:32:37;-3.80;99.90
21918;DHT22;11123;49.882;8.662;2022-12-16T15:35:45;-3.90;99.90
21918;DHT22;11123;49.882;8.662;2022-12-16T15:38:54;-4.00;99.90
21918;DHT22;11123;49.882;8.662;2022-12-16T15:41:53;-4.10;99.90
21918;DHT22;11123;49.882;8.662;2022-12-16T15:44:46;-4.20;99.90
21918;DHT22;11123;49.882;8.662;2022-12-16T15:47:40;-4.20;99.90
21918;DHT22;11123;49.882;8.662;2022-12-16T15:50:28;-4.30;99.90
21918;DHT22;11123;49.882;8.662;2022-12-16T15:53:25;-4.30;99.90
21918;DHT22;11123;49.882;8.662;2022-12-16T15:56:22;-4.40;99.90
21918;DHT22;11123;49.882;8.662;2022-12-16T15:59:21;-4.40;99.90
21918;DHT22;11123;49.882;8.662;2022-12-16T16:02:16;-4.50;99.90
21918;DHT22;11123;49.882;8.662;2022-12-16T16:05:10;-4.50;99.90
21918;DHT22;11123;49.882;8.662;2022-12-16T16:07:57;-4.60;99.90
21918;DHT22;11123;49.882;8.662;2022-12-16T16:10:45;-4.60;99.90
21918;DHT22;11123;49.882;8.662;2022-12-16T16:13:37;-4.70;99.90
21918;DHT22;11123;49.882;8.662;2022-12-16T16:16:32;-4.80;99.90
21918;DHT22;11123;49.882;8.662;2022-12-16T16:19:56;-4.90;99.90
21918;DHT22;11123;49.882;8.662;2022-12-16T16:22:44;-4.90;99.90
21918;DHT22;11123;49.882;8.662;2022-12-16T16:25:30;-5.00;99.90
21918;DHT22;11123;49.882;8.662;2022-12-16T16:28:17;-5.00;99.90
21918;DHT22;11123;49.882;8.662;2022-12-16T16:31:07;-5.10;99.90
21918;DHT22;11123;49.882;8.662;2022-12-16T16:33:55;-5.10;99.90
21918;DHT22;11123;49.882;8.662;2022-12-16T16:36:41;-5.20;99.90
21918;DHT22;11123;49.882;8.662;2022-12-16T16:39:28;-5.20;99.90
21918;DHT22;11123;49.882;8.662;2022-12-16T16:42:15;-5.30;99.90
21918;DHT22;11123;49.882;8.662;2022-12-16T16:45:01;-5.30;99.90
21918;DHT22;11123;49.882;8.662;2022-12-16T16:47:50;-5.30;99.90
21918;DHT22;11123;49.882;8.662;2022-12-16T16:50:37;-5.40;99.90
21918;DHT22;11123;49.882;8.662;2022-12-16T16:53:23;-5.50;99.90
21918;DHT22;11123;49.882;8.662;2022-12-16T16:56:10;-5.50;99.90
21918;DHT22;11123;49.882;8.662;2022-12-16T16:58:57;-5.60;99.90
21918;DHT22;11123;49.882;8.662;2022-12-16T17:02:30;-5.70;99.90
21918;DHT22;11123;49.882;8.662;2022-12-16T17:05:18;-5.70;99.90
21918;DHT22;11123;49.882;8.662;2022-12-16T17:08:05;-5.80;99.90
21918;DHT22;11123;49.882;8.662;2022-12-16T17:10:51;-5.80;99.90
21918;DHT22;11123;49.882;8.662;2022-12-16T17:13:38;-5.80;99.90
21918;DHT22;11123;49.882;8.662;2022-12-16T17:16:28;-5.90;99.90
21918;DHT22;11123;49.882;8.662;2022-12-16T17:19:15;-5.90;99.90
21918;DHT22;11123;49.882;8.662;2022-12-16T17:22:02;-6.00;99.90
21918;DHT22;11123;49.882;8.662;2022-12-16T17:24:49;-6.00;99.90
21918;DHT22;11123;49.882;8.662;2022-12-16T17:27:53;-5.90;99.90
21918;DHT22;11123;49.882;8.662;2022-12-16T17:30:40;-5.90;99.90
21918;DHT22;11123;49.882;8.662;2022-12-16T17:33:26;-6.00;99.90
21918;DHT22;11123;49.882;8.662;2022-12-16T17:36:14;-6.00;99.90
21918;DHT22;11123;49.882;8.662;2022-12-16T17:39:04;-6.00;99.90
21918;DHT22;11123;49.882;8.662;2022-12-16T17:41:52;-6.00;99.90
21918;DHT22;11123;49.882;8.662;2022-12-16T17:44:38;-6.00;99.90
21918;DHT22;11123;49.882;8.662;2022-12-16T17:47:26;-6.00;99.90
21918;DHT22;11123;49.882;8.662;2022-12-16T17:50:13;-6.00;99.90
21918;DHT22;11123;49.882;8.662;2022-12-16T17:53:00;-6.10;99.90
21918;DHT22;11123;49.882;8.662;2022-12-16T17:55:49;-6.20;99.90
21918;DHT22;11123;49.882;8.662;2022-12-16T17:58:37;-6.20;99.90
21918;DHT22;11123;49.882;8.662;2022-12-16T18:01:25;-6.30;99.90
21918;DHT22;11123;49.882;8.662;2022-12-16T18:04:12;-6.40;99.90
21918;DHT22;11123;49.882;8.662;2022-12-16T18:06:59;-6.40;99.90
21918;DHT22;11123;49.882;8.662;2022-12-16T18:09:45;-6.40;99.90
21918;DHT22;11123;49.882;8.662;2022-12-16T18:12:35;-6.50;99.90
21918;DHT22;11123;49.882;8.662;2022-12-16T18:15:22;-6.50;99.90
21918;DHT22;11123;49.882;8.662;2022-12-16T18:18:09;-6.60;99.90
21918;DHT22;11123;49.882;8.662;2022-12-16T18:21:08;-6.60;99.90
21918;DHT22;11123;49.882;8.662;2022-12-16T18:23:56;-6.70;99.90
21918;DHT22;11123;49.882;8.662;2022-12-16T18:27:00;-6.70;99.90
21918;DHT22;11123;49.882;8.662;2022-12-16T18:29:51;-6.70;99.90
21918;DHT22;11123;49.882;8.662;2022-12-16T18:32:37;-6.70;99.90
21918;DHT22;11123;49.882;8.662;2022-12-16T18:35:25;-6.80;99.90
21918;DHT22;11123;49.882;8.662;2022-12-16T18:38:14;-6.80;99.90
21918;DHT22;11123;49.882;8.662;2022-12-16T18:41:02;-6.80;99.90
21918;DHT22;11123;49.882;8.662;2022-12-16T18:43:49;-6.90;99.90
21918;DHT22;11123;49.882;8.662;2022-12-16T18:46:39;-6.90;99.90
21918;DHT22;11123;49.882;8.662;2022-12-16T18:49:26;-6.90;99.90
21918;DHT22;11123;49.882;8.662;2022-12-16T18:52:13;-6.90;99.90
21918;DHT22;11123;49.882;8.662;2022-12-16T18:54:59;-7.00;99.90
21918;DHT22;11123;49.882;8.662;2022-12-16T18:57:49;-7.00;99.90
21918;DHT22;11123;49.882;8.662;2022-12-16T19:01:00;-7.00;99.90
21918;DHT22;11123;49.882;8.662;2022-12-16T19:03:50;-7.00;99.90
21918;DHT22;11123;49.882;8.662;2022-12-16T19:06:36;-7.10;99.90
21918;DHT22;11123;49.882;8.662;2022-12-16T19:09:24;-7.10;99.90
21918;DHT22;11123;49.882;8.662;2022-12-16T19:12:11;-7.10;99.90
21918;DHT22;11123;49.882;8.662;2022-12-16T19:14:57;-7.10;99.90
21918;DHT22;11123;49.882;8.662;2022-12-16T19:17:43;-7.10;99.90
21918;DHT22;11123;49.882;8.662;2022-12-16T19:20:27;-7.00;99.90
21918;DHT22;11123;49.882;8.662;2022-12-16T19:23:13;-7.00;99.90
21918;DHT22;11123;49.882;8.662;2022-12-16T19:26:01;-7.00;99.90
21918;DHT22;11123;49.882;8.662;2022-12-16T19:28:49;-7.00;99.90
21918;DHT22;11123;49.882;8.662;2022-12-16T19:31:37;-7.10;99.90
21918;DHT22;11123;49.882;8.662;2022-12-16T19:34:22;-7.10;99.90
21918;DHT22;11123;49.882;8.662;2022-12-16T19:37:09;-7.10;99.90
21918;DHT22;11123;49.882;8.662;2022-12-16T19:39:56;-7.20;99.90
21918;DHT22;11123;49.882;8.662;2022-12-16T19:42:44;-7.10;99.90
21918;DHT22;11123;49.882;8.662;2022-12-16T19:45:31;-7.20;99.90
21918;DHT22;11123;49.882;8.662;2022-12-16T19:48:29;-7.20;99.90
21918;DHT22;11123;49.882;8.662;2022-12-16T19:51:15;-7.20;99.90
21918;DHT22;11123;49.882;8.662;2022-12-16T19:54:06;-7.20;99.90
21918;DHT22;11123;49.882;8.662;2022-12-16T19:56:55;-7.30;99.90
21918;DHT22;11123;49.882;8.662;2022-12-16T19:59:44;-7.30;99.90
21918;DHT22;11123;49.882;8.662;2022-12-16T20:02:41;-7.40;99.90
21918;DHT22;11123;49.882;8.662;2022-12-16T20:05:28;-7.40;99.90
21918;DHT22;11123;49.882;8.662;2022-12-16T20:08:14;-7.40;99.90
21918;DHT22;11123;49.882;8.662;2022-12-16T20:11:17;-7.50;99.90
21918;DHT22;11123;49.882;8.662;2022-12-16T20:14:03;-7.40;99.90
21918;DHT22;11123;49.882;8.662;2022-12-16T20:16:52;-7.40;99.90
21918;DHT22;11123;49.882;8.662;2022-12-16T20:19:39;-7.40;99.90
21918;DHT22;11123;49.882;8.662;2022-12-16T20:22:27;-7.50;99.90
21918;DHT22;11123;49.882;8.662;2022-12-16T20:25:25;-7.50;99.90